Burnham, Maine
Current Conditions -  °F | °C
As of 1:35 AM on Thursday 29 Jan 2015 (Local Time) from KWVL Reporting Station
Clear Clear  
Wind Chill:   Ceiling: Unl
Heat Index:   Visibility: 10mi
Dew Point: -6°   Wind: 3mph
Humidity: 61%   Direction: 230°SW
Pressure: 30.19"   Gusts: NA
Location:  44.69°N, 69.43°W
Report Text: KWVL 290635Z 23003KT 10SM CLR M15/M21 A3019 RMK AO1
Loading
Personal Weather Stations






























Interactive Weather Map New forecast layout! Learn more

10-Day Weather Forecast

Advertisements
Track Severe Weather on mobile